Terminal Aerodrome Forecast
Issued by NWS Wilmington, OH

Current Version | Previous Version | Graphics & Text | Print | Product List | Glossary On
Versions: 1 2 3 4 5 6 7 8 9 10 11 12 13 14 15 16 17
000
FTUS41 KILN 281129
TAFDAY
TAF
KDAY 281129Z 2812/2912 07003KT P6SM BKN080
     FM281300 07005KT P6SM FEW040 SCT080
     FM281800 08006KT P6SM BKN050
     FM290000 VRB03KT P6SM FEW040 SCT250
     FM290800 VRB02KT 4SM BR SCT250=

USA.gov is the U.S. government's official web portal to all federal, state and local government web resources and services.